<?xml version="1.0" encoding="UTF-8" standalone="no" ?>
<gpx xmlns="http://www.topografix.com/GPX/1/1" xmlns:xsi="http://www.w3.org/2001/XMLSchema-instance" xsi:schemaLocation="http://www.topografix.com/GPX/1/1 http://www.topografix.com/GPX/1/1/gpx.xsd" version="1.1" creator="VisuGPX - https://www.visugpx.com">
  <metadata>
    <name>Trail des 7 Hameaux</name>
    <desc><![CDATA[trail des 7 hameaux du 15 octobre 2017]]></desc>
  </metadata>
  <trk>
    <name><![CDATA[OR-1977260--Magny-les-Hameaux:Trail des 7 Hameaux - 14 km - Officiel]]></name>
    <trkseg>
      <trkpt lat="48.72388" lon="2.08316">
        <ele>164</ele>
        <time>2017-05-20T19:35:34Z</time>
      </trkpt>
      <trkpt lat="48.72451" lon="2.08292">
        <ele>163</ele>
        <time>2017-05-20T19:37:34Z</time>
      </trkpt>
      <trkpt lat="48.72432" lon="2.08164">
        <ele>162</ele>
        <time>2017-05-20T19:39:34Z</time>
      </trkpt>
      <trkpt lat="48.72425" lon="2.08131">
        <ele>163</ele>
        <time>2017-05-20T19:41:34Z</time>
      </trkpt>
      <trkpt lat="48.72417" lon="2.08079">
        <ele>163</ele>
        <time>2017-05-20T19:43:34Z</time>
      </trkpt>
      <trkpt lat="48.72408" lon="2.08014">
        <ele>161</ele>
        <time>2017-05-20T19:45:34Z</time>
      </trkpt>
      <trkpt lat="48.72402" lon="2.07995">
        <ele>161</ele>
        <time>2017-05-20T19:47:34Z</time>
      </trkpt>
      <trkpt lat="48.72403" lon="2.07982">
        <ele>161</ele>
        <time>2017-05-20T19:49:34Z</time>
      </trkpt>
      <trkpt lat="48.7238" lon="2.07848">
        <ele>158</ele>
        <time>2017-05-20T19:51:34Z</time>
      </trkpt>
      <trkpt lat="48.72352" lon="2.07663">
        <ele>157</ele>
        <time>2017-05-20T19:53:34Z</time>
      </trkpt>
      <trkpt lat="48.72333" lon="2.07646">
        <ele>157</ele>
        <time>2017-05-20T19:55:34Z</time>
      </trkpt>
      <trkpt lat="48.72332" lon="2.07636">
        <ele>157</ele>
        <time>2017-05-20T19:57:34Z</time>
      </trkpt>
      <trkpt lat="48.72332" lon="2.07625">
        <ele>156</ele>
        <time>2017-05-20T19:59:34Z</time>
      </trkpt>
      <trkpt lat="48.7239" lon="2.07399">
        <ele>155</ele>
        <time>2017-05-20T20:01:34Z</time>
      </trkpt>
      <trkpt lat="48.72397" lon="2.07383">
        <ele>156</ele>
        <time>2017-05-20T20:03:34Z</time>
      </trkpt>
      <trkpt lat="48.72404" lon="2.07376">
        <ele>156</ele>
        <time>2017-05-20T20:05:34Z</time>
      </trkpt>
      <trkpt lat="48.72399" lon="2.07361">
        <ele>157</ele>
        <time>2017-05-20T20:07:34Z</time>
      </trkpt>
      <trkpt lat="48.72397" lon="2.07346">
        <ele>157</ele>
        <time>2017-05-20T20:09:34Z</time>
      </trkpt>
      <trkpt lat="48.72396" lon="2.0733">
        <ele>157</ele>
        <time>2017-05-20T20:11:34Z</time>
      </trkpt>
      <trkpt lat="48.72397" lon="2.07312">
        <ele>157</ele>
        <time>2017-05-20T20:13:34Z</time>
      </trkpt>
      <trkpt lat="48.724" lon="2.07301">
        <ele>157</ele>
        <time>2017-05-20T20:15:34Z</time>
      </trkpt>
      <trkpt lat="48.7244" lon="2.07232">
        <ele>158</ele>
        <time>2017-05-20T20:17:34Z</time>
      </trkpt>
      <trkpt lat="48.72475" lon="2.07151">
        <ele>156</ele>
        <time>2017-05-20T20:19:34Z</time>
      </trkpt>
      <trkpt lat="48.72487" lon="2.07129">
        <ele>156</ele>
        <time>2017-05-20T20:21:34Z</time>
      </trkpt>
      <trkpt lat="48.72518" lon="2.0706">
        <ele>156</ele>
        <time>2017-05-20T20:23:34Z</time>
      </trkpt>
      <trkpt lat="48.72528" lon="2.07033">
        <ele>155</ele>
        <time>2017-05-20T20:25:34Z</time>
      </trkpt>
      <trkpt lat="48.72506" lon="2.07013">
        <ele>154</ele>
        <time>2017-05-20T20:27:34Z</time>
      </trkpt>
      <trkpt lat="48.72479" lon="2.06978">
        <ele>150</ele>
        <time>2017-05-20T20:29:34Z</time>
      </trkpt>
      <trkpt lat="48.72473" lon="2.06959">
        <ele>149</ele>
        <time>2017-05-20T20:31:34Z</time>
      </trkpt>
      <trkpt lat="48.72467" lon="2.0692">
        <ele>149</ele>
        <time>2017-05-20T20:33:34Z</time>
      </trkpt>
      <trkpt lat="48.7246" lon="2.06886">
        <ele>151</ele>
        <time>2017-05-20T20:35:34Z</time>
      </trkpt>
      <trkpt lat="48.72435" lon="2.06845">
        <ele>154</ele>
        <time>2017-05-20T20:37:34Z</time>
      </trkpt>
      <trkpt lat="48.72363" lon="2.06793">
        <ele>142</ele>
        <time>2017-05-20T20:39:34Z</time>
      </trkpt>
      <trkpt lat="48.72355" lon="2.0678">
        <ele>140</ele>
        <time>2017-05-20T20:41:34Z</time>
      </trkpt>
      <trkpt lat="48.72342" lon="2.06744">
        <ele>137</ele>
        <time>2017-05-20T20:43:34Z</time>
      </trkpt>
      <trkpt lat="48.72296" lon="2.06684">
        <ele>125</ele>
        <time>2017-05-20T20:45:34Z</time>
      </trkpt>
      <trkpt lat="48.72215" lon="2.06614">
        <ele>110</ele>
        <time>2017-05-20T20:47:34Z</time>
      </trkpt>
      <trkpt lat="48.7221" lon="2.06596">
        <ele>109</ele>
        <time>2017-05-20T20:49:34Z</time>
      </trkpt>
      <trkpt lat="48.72208" lon="2.06578">
        <ele>108</ele>
        <time>2017-05-20T20:51:34Z</time>
      </trkpt>
      <trkpt lat="48.72206" lon="2.06552">
        <ele>106</ele>
        <time>2017-05-20T20:53:34Z</time>
      </trkpt>
      <trkpt lat="48.72203" lon="2.06529">
        <ele>103</ele>
        <time>2017-05-20T20:55:34Z</time>
      </trkpt>
      <trkpt lat="48.72198" lon="2.065">
        <ele>100</ele>
        <time>2017-05-20T20:57:34Z</time>
      </trkpt>
      <trkpt lat="48.72194" lon="2.06467">
        <ele>96</ele>
        <time>2017-05-20T20:59:34Z</time>
      </trkpt>
      <trkpt lat="48.72192" lon="2.06442">
        <ele>94</ele>
        <time>2017-05-20T21:01:34Z</time>
      </trkpt>
      <trkpt lat="48.72193" lon="2.0642">
        <ele>92</ele>
        <time>2017-05-20T21:03:34Z</time>
      </trkpt>
      <trkpt lat="48.72195" lon="2.06405">
        <ele>91</ele>
        <time>2017-05-20T21:05:34Z</time>
      </trkpt>
      <trkpt lat="48.72196" lon="2.06388">
        <ele>91</ele>
        <time>2017-05-20T21:07:34Z</time>
      </trkpt>
      <trkpt lat="48.72189" lon="2.0637">
        <ele>89</ele>
        <time>2017-05-20T21:09:34Z</time>
      </trkpt>
      <trkpt lat="48.72141" lon="2.06293">
        <ele>86</ele>
        <time>2017-05-20T21:11:34Z</time>
      </trkpt>
      <trkpt lat="48.72099" lon="2.06205">
        <ele>88</ele>
        <time>2017-05-20T21:13:34Z</time>
      </trkpt>
      <trkpt lat="48.72094" lon="2.06188">
        <ele>88</ele>
        <time>2017-05-20T21:15:34Z</time>
      </trkpt>
      <trkpt lat="48.72067" lon="2.06122">
        <ele>90</ele>
        <time>2017-05-20T21:17:34Z</time>
      </trkpt>
      <trkpt lat="48.72029" lon="2.06012">
        <ele>94</ele>
        <time>2017-05-20T21:19:34Z</time>
      </trkpt>
      <trkpt lat="48.72028" lon="2.06005">
        <ele>95</ele>
        <time>2017-05-20T21:21:34Z</time>
      </trkpt>
      <trkpt lat="48.71989" lon="2.05857">
        <ele>106</ele>
        <time>2017-05-20T21:23:34Z</time>
      </trkpt>
      <trkpt lat="48.71983" lon="2.05824">
        <ele>108</ele>
        <time>2017-05-20T21:25:34Z</time>
      </trkpt>
      <trkpt lat="48.71985" lon="2.05817">
        <ele>109</ele>
        <time>2017-05-20T21:27:34Z</time>
      </trkpt>
      <trkpt lat="48.71983" lon="2.05811">
        <ele>110</ele>
        <time>2017-05-20T21:29:34Z</time>
      </trkpt>
      <trkpt lat="48.71974" lon="2.05797">
        <ele>113</ele>
        <time>2017-05-20T21:31:34Z</time>
      </trkpt>
      <trkpt lat="48.71974" lon="2.0577">
        <ele>116</ele>
        <time>2017-05-20T21:33:34Z</time>
      </trkpt>
      <trkpt lat="48.71964" lon="2.05743">
        <ele>122</ele>
        <time>2017-05-20T21:35:34Z</time>
      </trkpt>
      <trkpt lat="48.71968" lon="2.05732">
        <ele>123</ele>
        <time>2017-05-20T21:37:34Z</time>
      </trkpt>
      <trkpt lat="48.71969" lon="2.05724">
        <ele>123</ele>
        <time>2017-05-20T21:39:34Z</time>
      </trkpt>
      <trkpt lat="48.71965" lon="2.05713">
        <ele>126</ele>
        <time>2017-05-20T21:41:34Z</time>
      </trkpt>
      <trkpt lat="48.71948" lon="2.05705">
        <ele>131</ele>
        <time>2017-05-20T21:43:34Z</time>
      </trkpt>
      <trkpt lat="48.71941" lon="2.05696">
        <ele>134</ele>
        <time>2017-05-20T21:45:34Z</time>
      </trkpt>
      <trkpt lat="48.71915" lon="2.05722">
        <ele>137</ele>
        <time>2017-05-20T21:47:34Z</time>
      </trkpt>
      <trkpt lat="48.71821" lon="2.0572">
        <ele>132</ele>
        <time>2017-05-20T21:49:34Z</time>
      </trkpt>
      <trkpt lat="48.71801" lon="2.05732">
        <ele>127</ele>
        <time>2017-05-20T21:51:34Z</time>
      </trkpt>
      <trkpt lat="48.71796" lon="2.05758">
        <ele>124</ele>
        <time>2017-05-20T21:53:34Z</time>
      </trkpt>
      <trkpt lat="48.71789" lon="2.05773">
        <ele>122</ele>
        <time>2017-05-20T21:55:34Z</time>
      </trkpt>
      <trkpt lat="48.71772" lon="2.05777">
        <ele>120</ele>
        <time>2017-05-20T21:57:34Z</time>
      </trkpt>
      <trkpt lat="48.71763" lon="2.05791">
        <ele>118</ele>
        <time>2017-05-20T21:59:34Z</time>
      </trkpt>
      <trkpt lat="48.71743" lon="2.05789">
        <ele>117</ele>
        <time>2017-05-20T22:01:34Z</time>
      </trkpt>
      <trkpt lat="48.71727" lon="2.05768">
        <ele>119</ele>
        <time>2017-05-20T22:03:34Z</time>
      </trkpt>
      <trkpt lat="48.71678" lon="2.05751">
        <ele>123</ele>
        <time>2017-05-20T22:05:34Z</time>
      </trkpt>
      <trkpt lat="48.71678" lon="2.05735">
        <ele>124</ele>
        <time>2017-05-20T22:07:34Z</time>
      </trkpt>
      <trkpt lat="48.71684" lon="2.05741">
        <ele>123</ele>
        <time>2017-05-20T22:09:34Z</time>
      </trkpt>
      <trkpt lat="48.71685" lon="2.05729">
        <ele>124</ele>
        <time>2017-05-20T22:11:34Z</time>
      </trkpt>
      <trkpt lat="48.71674" lon="2.05712">
        <ele>126</ele>
        <time>2017-05-20T22:13:34Z</time>
      </trkpt>
      <trkpt lat="48.71673" lon="2.05698">
        <ele>127</ele>
        <time>2017-05-20T22:15:34Z</time>
      </trkpt>
      <trkpt lat="48.71669" lon="2.05678">
        <ele>128</ele>
        <time>2017-05-20T22:17:34Z</time>
      </trkpt>
      <trkpt lat="48.71673" lon="2.05665">
        <ele>129</ele>
        <time>2017-05-20T22:19:34Z</time>
      </trkpt>
      <trkpt lat="48.71699" lon="2.05635">
        <ele>128</ele>
        <time>2017-05-20T22:21:34Z</time>
      </trkpt>
      <trkpt lat="48.71711" lon="2.05609">
        <ele>129</ele>
        <time>2017-05-20T22:23:34Z</time>
      </trkpt>
      <trkpt lat="48.71712" lon="2.05601">
        <ele>129</ele>
        <time>2017-05-20T22:25:34Z</time>
      </trkpt>
      <trkpt lat="48.7171" lon="2.05586">
        <ele>131</ele>
        <time>2017-05-20T22:27:34Z</time>
      </trkpt>
      <trkpt lat="48.71709" lon="2.05571">
        <ele>132</ele>
        <time>2017-05-20T22:29:34Z</time>
      </trkpt>
      <trkpt lat="48.71708" lon="2.05562">
        <ele>133</ele>
        <time>2017-05-20T22:31:34Z</time>
      </trkpt>
      <trkpt lat="48.71705" lon="2.05547">
        <ele>134</ele>
        <time>2017-05-20T22:33:34Z</time>
      </trkpt>
      <trkpt lat="48.71706" lon="2.05537">
        <ele>135</ele>
        <time>2017-05-20T22:35:34Z</time>
      </trkpt>
      <trkpt lat="48.71714" lon="2.05511">
        <ele>136</ele>
        <time>2017-05-20T22:37:34Z</time>
      </trkpt>
      <trkpt lat="48.71719" lon="2.05503">
        <ele>136</ele>
        <time>2017-05-20T22:39:34Z</time>
      </trkpt>
      <trkpt lat="48.71845" lon="2.05466">
        <ele>152</ele>
        <time>2017-05-20T22:41:34Z</time>
      </trkpt>
      <trkpt lat="48.71872" lon="2.05409">
        <ele>155</ele>
        <time>2017-05-20T22:43:34Z</time>
      </trkpt>
      <trkpt lat="48.72101" lon="2.04909">
        <ele>162</ele>
        <time>2017-05-20T22:45:34Z</time>
      </trkpt>
      <trkpt lat="48.72105" lon="2.04893">
        <ele>161</ele>
        <time>2017-05-20T22:47:34Z</time>
      </trkpt>
      <trkpt lat="48.72107" lon="2.0487">
        <ele>160</ele>
        <time>2017-05-20T22:49:34Z</time>
      </trkpt>
      <trkpt lat="48.7211" lon="2.04849">
        <ele>159</ele>
        <time>2017-05-20T22:51:34Z</time>
      </trkpt>
      <trkpt lat="48.72117" lon="2.04809">
        <ele>156</ele>
        <time>2017-05-20T22:53:34Z</time>
      </trkpt>
      <trkpt lat="48.72121" lon="2.04775">
        <ele>154</ele>
        <time>2017-05-20T22:55:34Z</time>
      </trkpt>
      <trkpt lat="48.72128" lon="2.04758">
        <ele>151</ele>
        <time>2017-05-20T22:57:34Z</time>
      </trkpt>
      <trkpt lat="48.72146" lon="2.04656">
        <ele>148</ele>
        <time>2017-05-20T22:59:34Z</time>
      </trkpt>
      <trkpt lat="48.72189" lon="2.04633">
        <ele>141</ele>
        <time>2017-05-20T23:01:34Z</time>
      </trkpt>
      <trkpt lat="48.72214" lon="2.04611">
        <ele>137</ele>
        <time>2017-05-20T23:03:34Z</time>
      </trkpt>
      <trkpt lat="48.72213" lon="2.04593">
        <ele>138</ele>
        <time>2017-05-20T23:05:34Z</time>
      </trkpt>
      <trkpt lat="48.7221" lon="2.04568">
        <ele>138</ele>
        <time>2017-05-20T23:07:34Z</time>
      </trkpt>
      <trkpt lat="48.72176" lon="2.04493">
        <ele>146</ele>
        <time>2017-05-20T23:09:34Z</time>
      </trkpt>
      <trkpt lat="48.72168" lon="2.04487">
        <ele>148</ele>
        <time>2017-05-20T23:11:34Z</time>
      </trkpt>
      <trkpt lat="48.72166" lon="2.04477">
        <ele>149</ele>
        <time>2017-05-20T23:13:34Z</time>
      </trkpt>
      <trkpt lat="48.72163" lon="2.04466">
        <ele>151</ele>
        <time>2017-05-20T23:15:34Z</time>
      </trkpt>
      <trkpt lat="48.72163" lon="2.04458">
        <ele>151</ele>
        <time>2017-05-20T23:17:34Z</time>
      </trkpt>
      <trkpt lat="48.72165" lon="2.04449">
        <ele>152</ele>
        <time>2017-05-20T23:19:34Z</time>
      </trkpt>
      <trkpt lat="48.72168" lon="2.04448">
        <ele>152</ele>
        <time>2017-05-20T23:21:34Z</time>
      </trkpt>
      <trkpt lat="48.72172" lon="2.04434">
        <ele>153</ele>
        <time>2017-05-20T23:23:34Z</time>
      </trkpt>
      <trkpt lat="48.72187" lon="2.04428">
        <ele>151</ele>
        <time>2017-05-20T23:25:34Z</time>
      </trkpt>
      <trkpt lat="48.722" lon="2.0436">
        <ele>158</ele>
        <time>2017-05-20T23:27:34Z</time>
      </trkpt>
      <trkpt lat="48.72211" lon="2.04293">
        <ele>162</ele>
        <time>2017-05-20T23:29:34Z</time>
      </trkpt>
      <trkpt lat="48.72428" lon="2.03821">
        <ele>162</ele>
        <time>2017-05-20T23:31:34Z</time>
      </trkpt>
      <trkpt lat="48.72443" lon="2.03803">
        <ele>158</ele>
        <time>2017-05-20T23:33:34Z</time>
      </trkpt>
      <trkpt lat="48.72465" lon="2.03818">
        <ele>154</ele>
        <time>2017-05-20T23:35:34Z</time>
      </trkpt>
      <trkpt lat="48.72474" lon="2.03833">
        <ele>153</ele>
        <time>2017-05-20T23:37:34Z</time>
      </trkpt>
      <trkpt lat="48.72479" lon="2.03835">
        <ele>152</ele>
        <time>2017-05-20T23:39:34Z</time>
      </trkpt>
      <trkpt lat="48.72484" lon="2.03832">
        <ele>151</ele>
        <time>2017-05-20T23:41:34Z</time>
      </trkpt>
      <trkpt lat="48.72501" lon="2.0381">
        <ele>146</ele>
        <time>2017-05-20T23:43:34Z</time>
      </trkpt>
      <trkpt lat="48.72513" lon="2.03805">
        <ele>143</ele>
        <time>2017-05-20T23:45:34Z</time>
      </trkpt>
      <trkpt lat="48.72526" lon="2.03807">
        <ele>140</ele>
        <time>2017-05-20T23:47:34Z</time>
      </trkpt>
      <trkpt lat="48.72531" lon="2.03816">
        <ele>139</ele>
        <time>2017-05-20T23:49:34Z</time>
      </trkpt>
      <trkpt lat="48.72538" lon="2.03821">
        <ele>138</ele>
        <time>2017-05-20T23:51:34Z</time>
      </trkpt>
      <trkpt lat="48.72546" lon="2.0381">
        <ele>135</ele>
        <time>2017-05-20T23:53:34Z</time>
      </trkpt>
      <trkpt lat="48.72556" lon="2.03802">
        <ele>132</ele>
        <time>2017-05-20T23:55:34Z</time>
      </trkpt>
      <trkpt lat="48.72571" lon="2.03831">
        <ele>130</ele>
        <time>2017-05-20T23:57:34Z</time>
      </trkpt>
      <trkpt lat="48.72618" lon="2.03841">
        <ele>119</ele>
        <time>2017-05-20T23:59:34Z</time>
      </trkpt>
      <trkpt lat="48.72608" lon="2.03819">
        <ele>121</ele>
        <time>2017-05-21T00:01:34Z</time>
      </trkpt>
      <trkpt lat="48.72603" lon="2.03804">
        <ele>122</ele>
        <time>2017-05-21T00:03:34Z</time>
      </trkpt>
      <trkpt lat="48.72401" lon="2.03348">
        <ele>161</ele>
        <time>2017-05-21T00:05:34Z</time>
      </trkpt>
      <trkpt lat="48.72513" lon="2.03333">
        <ele>142</ele>
        <time>2017-05-21T00:07:34Z</time>
      </trkpt>
      <trkpt lat="48.72534" lon="2.03291">
        <ele>134</ele>
        <time>2017-05-21T00:09:34Z</time>
      </trkpt>
      <trkpt lat="48.72521" lon="2.03263">
        <ele>134</ele>
        <time>2017-05-21T00:11:34Z</time>
      </trkpt>
      <trkpt lat="48.72509" lon="2.03247">
        <ele>134</ele>
        <time>2017-05-21T00:13:34Z</time>
      </trkpt>
      <trkpt lat="48.72507" lon="2.03241">
        <ele>135</ele>
        <time>2017-05-21T00:15:34Z</time>
      </trkpt>
      <trkpt lat="48.72499" lon="2.03225">
        <ele>135</ele>
        <time>2017-05-21T00:17:34Z</time>
      </trkpt>
      <trkpt lat="48.72497" lon="2.03219">
        <ele>136</ele>
        <time>2017-05-21T00:19:34Z</time>
      </trkpt>
      <trkpt lat="48.72487" lon="2.03206">
        <ele>138</ele>
        <time>2017-05-21T00:21:34Z</time>
      </trkpt>
      <trkpt lat="48.72479" lon="2.032">
        <ele>139</ele>
        <time>2017-05-21T00:23:34Z</time>
      </trkpt>
      <trkpt lat="48.72454" lon="2.03156">
        <ele>143</ele>
        <time>2017-05-21T00:25:34Z</time>
      </trkpt>
      <trkpt lat="48.72451" lon="2.03147">
        <ele>143</ele>
        <time>2017-05-21T00:27:34Z</time>
      </trkpt>
      <trkpt lat="48.72441" lon="2.03128">
        <ele>144</ele>
        <time>2017-05-21T00:29:34Z</time>
      </trkpt>
      <trkpt lat="48.72432" lon="2.03119">
        <ele>146</ele>
        <time>2017-05-21T00:31:34Z</time>
      </trkpt>
      <trkpt lat="48.72427" lon="2.031">
        <ele>145</ele>
        <time>2017-05-21T00:33:34Z</time>
      </trkpt>
      <trkpt lat="48.72425" lon="2.03085">
        <ele>145</ele>
        <time>2017-05-21T00:35:34Z</time>
      </trkpt>
      <trkpt lat="48.72426" lon="2.0307">
        <ele>144</ele>
        <time>2017-05-21T00:37:34Z</time>
      </trkpt>
      <trkpt lat="48.72432" lon="2.03057">
        <ele>142</ele>
        <time>2017-05-21T00:39:34Z</time>
      </trkpt>
      <trkpt lat="48.7244" lon="2.03031">
        <ele>139</ele>
        <time>2017-05-21T00:41:34Z</time>
      </trkpt>
      <trkpt lat="48.72446" lon="2.0298">
        <ele>135</ele>
        <time>2017-05-21T00:43:34Z</time>
      </trkpt>
      <trkpt lat="48.72454" lon="2.02954">
        <ele>133</ele>
        <time>2017-05-21T00:45:34Z</time>
      </trkpt>
      <trkpt lat="48.72454" lon="2.02938">
        <ele>133</ele>
        <time>2017-05-21T00:47:34Z</time>
      </trkpt>
      <trkpt lat="48.72451" lon="2.02916">
        <ele>132</ele>
        <time>2017-05-21T00:49:34Z</time>
      </trkpt>
      <trkpt lat="48.72447" lon="2.02905">
        <ele>132</ele>
        <time>2017-05-21T00:51:34Z</time>
      </trkpt>
      <trkpt lat="48.72432" lon="2.02883">
        <ele>133</ele>
        <time>2017-05-21T00:53:34Z</time>
      </trkpt>
      <trkpt lat="48.72424" lon="2.02858">
        <ele>134</ele>
        <time>2017-05-21T00:55:34Z</time>
      </trkpt>
      <trkpt lat="48.72419" lon="2.02853">
        <ele>134</ele>
        <time>2017-05-21T00:57:34Z</time>
      </trkpt>
      <trkpt lat="48.72386" lon="2.0284">
        <ele>139</ele>
        <time>2017-05-21T00:59:34Z</time>
      </trkpt>
      <trkpt lat="48.72372" lon="2.02823">
        <ele>142</ele>
        <time>2017-05-21T01:01:34Z</time>
      </trkpt>
      <trkpt lat="48.72361" lon="2.028">
        <ele>146</ele>
        <time>2017-05-21T01:03:34Z</time>
      </trkpt>
      <trkpt lat="48.72373" lon="2.02796">
        <ele>143</ele>
        <time>2017-05-21T01:05:34Z</time>
      </trkpt>
      <trkpt lat="48.7244" lon="2.0273">
        <ele>134</ele>
        <time>2017-05-21T01:07:34Z</time>
      </trkpt>
      <trkpt lat="48.72492" lon="2.027">
        <ele>129</ele>
        <time>2017-05-21T01:09:34Z</time>
      </trkpt>
      <trkpt lat="48.72553" lon="2.0268">
        <ele>123</ele>
        <time>2017-05-21T01:11:34Z</time>
      </trkpt>
      <trkpt lat="48.72644" lon="2.02617">
        <ele>116</ele>
        <time>2017-05-21T01:13:34Z</time>
      </trkpt>
      <trkpt lat="48.72697" lon="2.0255">
        <ele>113</ele>
        <time>2017-05-21T01:15:34Z</time>
      </trkpt>
      <trkpt lat="48.7271" lon="2.02538">
        <ele>111</ele>
        <time>2017-05-21T01:17:34Z</time>
      </trkpt>
      <trkpt lat="48.72729" lon="2.02537">
        <ele>108</ele>
        <time>2017-05-21T01:19:34Z</time>
      </trkpt>
      <trkpt lat="48.72724" lon="2.02559">
        <ele>109</ele>
        <time>2017-05-21T01:21:34Z</time>
      </trkpt>
      <trkpt lat="48.72943" lon="2.02774">
        <ele>102</ele>
        <time>2017-05-21T01:23:34Z</time>
      </trkpt>
      <trkpt lat="48.72951" lon="2.02799">
        <ele>104</ele>
        <time>2017-05-21T01:25:34Z</time>
      </trkpt>
      <trkpt lat="48.72958" lon="2.02825">
        <ele>106</ele>
        <time>2017-05-21T01:27:34Z</time>
      </trkpt>
      <trkpt lat="48.73024" lon="2.02985">
        <ele>123</ele>
        <time>2017-05-21T01:29:34Z</time>
      </trkpt>
      <trkpt lat="48.73032" lon="2.0301">
        <ele>126</ele>
        <time>2017-05-21T01:31:34Z</time>
      </trkpt>
      <trkpt lat="48.73038" lon="2.03021">
        <ele>128</ele>
        <time>2017-05-21T01:33:34Z</time>
      </trkpt>
      <trkpt lat="48.73049" lon="2.03021">
        <ele>131</ele>
        <time>2017-05-21T01:35:34Z</time>
      </trkpt>
      <trkpt lat="48.73063" lon="2.02994">
        <ele>134</ele>
        <time>2017-05-21T01:37:34Z</time>
      </trkpt>
      <trkpt lat="48.73069" lon="2.02979">
        <ele>134</ele>
        <time>2017-05-21T01:39:34Z</time>
      </trkpt>
      <trkpt lat="48.73074" lon="2.02959">
        <ele>134</ele>
        <time>2017-05-21T01:41:34Z</time>
      </trkpt>
      <trkpt lat="48.73087" lon="2.02921">
        <ele>134</ele>
        <time>2017-05-21T01:43:34Z</time>
      </trkpt>
      <trkpt lat="48.73089" lon="2.0291">
        <ele>134</ele>
        <time>2017-05-21T01:45:34Z</time>
      </trkpt>
      <trkpt lat="48.73092" lon="2.02903">
        <ele>135</ele>
        <time>2017-05-21T01:47:34Z</time>
      </trkpt>
      <trkpt lat="48.731" lon="2.02892">
        <ele>136</ele>
        <time>2017-05-21T01:49:34Z</time>
      </trkpt>
      <trkpt lat="48.73113" lon="2.02865">
        <ele>137</ele>
        <time>2017-05-21T01:51:34Z</time>
      </trkpt>
      <trkpt lat="48.73121" lon="2.02857">
        <ele>138</ele>
        <time>2017-05-21T01:53:34Z</time>
      </trkpt>
      <trkpt lat="48.73133" lon="2.02852">
        <ele>140</ele>
        <time>2017-05-21T01:55:34Z</time>
      </trkpt>
      <trkpt lat="48.73138" lon="2.02855">
        <ele>141</ele>
        <time>2017-05-21T01:57:34Z</time>
      </trkpt>
      <trkpt lat="48.73139" lon="2.02865">
        <ele>142</ele>
        <time>2017-05-21T01:59:34Z</time>
      </trkpt>
      <trkpt lat="48.73138" lon="2.02869">
        <ele>143</ele>
        <time>2017-05-21T02:01:34Z</time>
      </trkpt>
      <trkpt lat="48.73134" lon="2.0288">
        <ele>143</ele>
        <time>2017-05-21T02:03:34Z</time>
      </trkpt>
      <trkpt lat="48.73133" lon="2.02886">
        <ele>143</ele>
        <time>2017-05-21T02:05:34Z</time>
      </trkpt>
      <trkpt lat="48.73135" lon="2.02892">
        <ele>144</ele>
        <time>2017-05-21T02:07:34Z</time>
      </trkpt>
      <trkpt lat="48.73139" lon="2.02894">
        <ele>145</ele>
        <time>2017-05-21T02:09:34Z</time>
      </trkpt>
      <trkpt lat="48.73147" lon="2.02893">
        <ele>147</ele>
        <time>2017-05-21T02:11:34Z</time>
      </trkpt>
      <trkpt lat="48.73155" lon="2.02906">
        <ele>151</ele>
        <time>2017-05-21T02:13:34Z</time>
      </trkpt>
      <trkpt lat="48.73157" lon="2.02912">
        <ele>152</ele>
        <time>2017-05-21T02:15:34Z</time>
      </trkpt>
      <trkpt lat="48.73163" lon="2.02918">
        <ele>154</ele>
        <time>2017-05-21T02:17:34Z</time>
      </trkpt>
      <trkpt lat="48.73166" lon="2.02926">
        <ele>155</ele>
        <time>2017-05-21T02:19:34Z</time>
      </trkpt>
      <trkpt lat="48.73166" lon="2.02944">
        <ele>156</ele>
        <time>2017-05-21T02:21:34Z</time>
      </trkpt>
      <trkpt lat="48.73168" lon="2.02954">
        <ele>156</ele>
        <time>2017-05-21T02:23:34Z</time>
      </trkpt>
      <trkpt lat="48.7317" lon="2.02967">
        <ele>157</ele>
        <time>2017-05-21T02:25:34Z</time>
      </trkpt>
      <trkpt lat="48.73173" lon="2.02979">
        <ele>157</ele>
        <time>2017-05-21T02:27:34Z</time>
      </trkpt>
      <trkpt lat="48.73181" lon="2.02992">
        <ele>158</ele>
        <time>2017-05-21T02:29:34Z</time>
      </trkpt>
      <trkpt lat="48.73193" lon="2.03006">
        <ele>158</ele>
        <time>2017-05-21T02:31:34Z</time>
      </trkpt>
      <trkpt lat="48.73205" lon="2.03011">
        <ele>159</ele>
        <time>2017-05-21T02:33:34Z</time>
      </trkpt>
      <trkpt lat="48.73216" lon="2.03033">
        <ele>158</ele>
        <time>2017-05-21T02:35:34Z</time>
      </trkpt>
      <trkpt lat="48.73225" lon="2.03057">
        <ele>158</ele>
        <time>2017-05-21T02:37:34Z</time>
      </trkpt>
      <trkpt lat="48.73232" lon="2.03083">
        <ele>158</ele>
        <time>2017-05-21T02:39:34Z</time>
      </trkpt>
      <trkpt lat="48.73236" lon="2.03114">
        <ele>159</ele>
        <time>2017-05-21T02:41:34Z</time>
      </trkpt>
      <trkpt lat="48.73238" lon="2.03141">
        <ele>159</ele>
        <time>2017-05-21T02:43:34Z</time>
      </trkpt>
      <trkpt lat="48.7324" lon="2.03167">
        <ele>160</ele>
        <time>2017-05-21T02:45:34Z</time>
      </trkpt>
      <trkpt lat="48.73238" lon="2.03201">
        <ele>160</ele>
        <time>2017-05-21T02:47:34Z</time>
      </trkpt>
      <trkpt lat="48.73236" lon="2.0327">
        <ele>158</ele>
        <time>2017-05-21T02:49:34Z</time>
      </trkpt>
      <trkpt lat="48.73232" lon="2.03339">
        <ele>157</ele>
        <time>2017-05-21T02:51:34Z</time>
      </trkpt>
      <trkpt lat="48.73229" lon="2.03385">
        <ele>156</ele>
        <time>2017-05-21T02:53:34Z</time>
      </trkpt>
      <trkpt lat="48.73218" lon="2.03437">
        <ele>156</ele>
        <time>2017-05-21T02:55:34Z</time>
      </trkpt>
      <trkpt lat="48.73207" lon="2.03476">
        <ele>157</ele>
        <time>2017-05-21T02:57:34Z</time>
      </trkpt>
      <trkpt lat="48.73186" lon="2.03517">
        <ele>158</ele>
        <time>2017-05-21T02:59:34Z</time>
      </trkpt>
      <trkpt lat="48.73138" lon="2.0359">
        <ele>157</ele>
        <time>2017-05-21T03:01:34Z</time>
      </trkpt>
      <trkpt lat="48.73126" lon="2.03623">
        <ele>155</ele>
        <time>2017-05-21T03:03:34Z</time>
      </trkpt>
      <trkpt lat="48.73121" lon="2.03645">
        <ele>154</ele>
        <time>2017-05-21T03:05:34Z</time>
      </trkpt>
      <trkpt lat="48.73117" lon="2.03685">
        <ele>154</ele>
        <time>2017-05-21T03:07:34Z</time>
      </trkpt>
      <trkpt lat="48.73116" lon="2.03723">
        <ele>154</ele>
        <time>2017-05-21T03:09:34Z</time>
      </trkpt>
      <trkpt lat="48.73116" lon="2.0374">
        <ele>154</ele>
        <time>2017-05-21T03:11:34Z</time>
      </trkpt>
      <trkpt lat="48.73118" lon="2.03787">
        <ele>155</ele>
        <time>2017-05-21T03:13:34Z</time>
      </trkpt>
      <trkpt lat="48.7312" lon="2.03816">
        <ele>155</ele>
        <time>2017-05-21T03:15:34Z</time>
      </trkpt>
      <trkpt lat="48.73123" lon="2.03843">
        <ele>156</ele>
        <time>2017-05-21T03:17:34Z</time>
      </trkpt>
      <trkpt lat="48.73127" lon="2.03872">
        <ele>157</ele>
        <time>2017-05-21T03:19:34Z</time>
      </trkpt>
      <trkpt lat="48.73131" lon="2.03897">
        <ele>157</ele>
        <time>2017-05-21T03:21:34Z</time>
      </trkpt>
      <trkpt lat="48.73132" lon="2.03924">
        <ele>158</ele>
        <time>2017-05-21T03:23:34Z</time>
      </trkpt>
      <trkpt lat="48.7313" lon="2.03953">
        <ele>158</ele>
        <time>2017-05-21T03:25:34Z</time>
      </trkpt>
      <trkpt lat="48.73128" lon="2.0398">
        <ele>158</ele>
        <time>2017-05-21T03:27:34Z</time>
      </trkpt>
      <trkpt lat="48.73128" lon="2.04006">
        <ele>158</ele>
        <time>2017-05-21T03:29:34Z</time>
      </trkpt>
      <trkpt lat="48.73132" lon="2.04035">
        <ele>159</ele>
        <time>2017-05-21T03:31:34Z</time>
      </trkpt>
      <trkpt lat="48.73141" lon="2.04077">
        <ele>161</ele>
        <time>2017-05-21T03:33:34Z</time>
      </trkpt>
      <trkpt lat="48.73153" lon="2.04123">
        <ele>162</ele>
        <time>2017-05-21T03:35:34Z</time>
      </trkpt>
      <trkpt lat="48.73165" lon="2.04171">
        <ele>163</ele>
        <time>2017-05-21T03:37:34Z</time>
      </trkpt>
      <trkpt lat="48.73182" lon="2.04226">
        <ele>163</ele>
        <time>2017-05-21T03:39:34Z</time>
      </trkpt>
      <trkpt lat="48.73197" lon="2.04263">
        <ele>162</ele>
        <time>2017-05-21T03:41:34Z</time>
      </trkpt>
      <trkpt lat="48.73204" lon="2.04286">
        <ele>162</ele>
        <time>2017-05-21T03:43:34Z</time>
      </trkpt>
      <trkpt lat="48.73212" lon="2.0431">
        <ele>163</ele>
        <time>2017-05-21T03:45:34Z</time>
      </trkpt>
      <trkpt lat="48.73221" lon="2.04339">
        <ele>162</ele>
        <time>2017-05-21T03:47:34Z</time>
      </trkpt>
      <trkpt lat="48.73226" lon="2.04355">
        <ele>162</ele>
        <time>2017-05-21T03:49:34Z</time>
      </trkpt>
      <trkpt lat="48.73235" lon="2.04377">
        <ele>162</ele>
        <time>2017-05-21T03:51:34Z</time>
      </trkpt>
      <trkpt lat="48.73244" lon="2.04401">
        <ele>161</ele>
        <time>2017-05-21T03:53:34Z</time>
      </trkpt>
      <trkpt lat="48.7325" lon="2.04418">
        <ele>161</ele>
        <time>2017-05-21T03:55:34Z</time>
      </trkpt>
      <trkpt lat="48.73256" lon="2.04436">
        <ele>161</ele>
        <time>2017-05-21T03:57:34Z</time>
      </trkpt>
      <trkpt lat="48.7326" lon="2.04454">
        <ele>162</ele>
        <time>2017-05-21T03:59:34Z</time>
      </trkpt>
      <trkpt lat="48.73264" lon="2.04473">
        <ele>162</ele>
        <time>2017-05-21T04:01:34Z</time>
      </trkpt>
      <trkpt lat="48.73279" lon="2.04524">
        <ele>165</ele>
        <time>2017-05-21T04:03:34Z</time>
      </trkpt>
      <trkpt lat="48.73288" lon="2.04517">
        <ele>164</ele>
        <time>2017-05-21T04:05:34Z</time>
      </trkpt>
      <trkpt lat="48.73316" lon="2.04498">
        <ele>164</ele>
        <time>2017-05-21T04:07:34Z</time>
      </trkpt>
      <trkpt lat="48.73324" lon="2.04525">
        <ele>166</ele>
        <time>2017-05-21T04:09:34Z</time>
      </trkpt>
      <trkpt lat="48.73331" lon="2.04543">
        <ele>167</ele>
        <time>2017-05-21T04:11:34Z</time>
      </trkpt>
      <trkpt lat="48.73338" lon="2.04558">
        <ele>168</ele>
        <time>2017-05-21T04:13:34Z</time>
      </trkpt>
      <trkpt lat="48.73346" lon="2.04572">
        <ele>170</ele>
        <time>2017-05-21T04:15:34Z</time>
      </trkpt>
      <trkpt lat="48.7335" lon="2.04591">
        <ele>171</ele>
        <time>2017-05-21T04:17:34Z</time>
      </trkpt>
      <trkpt lat="48.73355" lon="2.04612">
        <ele>171</ele>
        <time>2017-05-21T04:19:34Z</time>
      </trkpt>
      <trkpt lat="48.73357" lon="2.04641">
        <ele>172</ele>
        <time>2017-05-21T04:21:34Z</time>
      </trkpt>
      <trkpt lat="48.73361" lon="2.04668">
        <ele>173</ele>
        <time>2017-05-21T04:23:34Z</time>
      </trkpt>
      <trkpt lat="48.73367" lon="2.04686">
        <ele>173</ele>
        <time>2017-05-21T04:25:34Z</time>
      </trkpt>
      <trkpt lat="48.73371" lon="2.04707">
        <ele>172</ele>
        <time>2017-05-21T04:27:34Z</time>
      </trkpt>
      <trkpt lat="48.73374" lon="2.04762">
        <ele>171</ele>
        <time>2017-05-21T04:29:34Z</time>
      </trkpt>
      <trkpt lat="48.73376" lon="2.04799">
        <ele>172</ele>
        <time>2017-05-21T04:31:34Z</time>
      </trkpt>
      <trkpt lat="48.73376" lon="2.04839">
        <ele>173</ele>
        <time>2017-05-21T04:33:34Z</time>
      </trkpt>
      <trkpt lat="48.73377" lon="2.04874">
        <ele>173</ele>
        <time>2017-05-21T04:35:34Z</time>
      </trkpt>
      <trkpt lat="48.73379" lon="2.04902">
        <ele>173</ele>
        <time>2017-05-21T04:37:34Z</time>
      </trkpt>
      <trkpt lat="48.73385" lon="2.04922">
        <ele>174</ele>
        <time>2017-05-21T04:39:34Z</time>
      </trkpt>
      <trkpt lat="48.73394" lon="2.04941">
        <ele>174</ele>
        <time>2017-05-21T04:41:34Z</time>
      </trkpt>
      <trkpt lat="48.73409" lon="2.04962">
        <ele>175</ele>
        <time>2017-05-21T04:43:34Z</time>
      </trkpt>
      <trkpt lat="48.73432" lon="2.0499">
        <ele>174</ele>
        <time>2017-05-21T04:45:34Z</time>
      </trkpt>
      <trkpt lat="48.73454" lon="2.05018">
        <ele>173</ele>
        <time>2017-05-21T04:47:34Z</time>
      </trkpt>
      <trkpt lat="48.73477" lon="2.05045">
        <ele>171</ele>
        <time>2017-05-21T04:49:34Z</time>
      </trkpt>
      <trkpt lat="48.73501" lon="2.05073">
        <ele>169</ele>
        <time>2017-05-21T04:51:34Z</time>
      </trkpt>
      <trkpt lat="48.73522" lon="2.05101">
        <ele>168</ele>
        <time>2017-05-21T04:53:34Z</time>
      </trkpt>
      <trkpt lat="48.73544" lon="2.05129">
        <ele>167</ele>
        <time>2017-05-21T04:55:34Z</time>
      </trkpt>
      <trkpt lat="48.73566" lon="2.05157">
        <ele>166</ele>
        <time>2017-05-21T04:57:34Z</time>
      </trkpt>
      <trkpt lat="48.73587" lon="2.05184">
        <ele>165</ele>
        <time>2017-05-21T04:59:34Z</time>
      </trkpt>
      <trkpt lat="48.73609" lon="2.05214">
        <ele>165</ele>
        <time>2017-05-21T05:01:34Z</time>
      </trkpt>
      <trkpt lat="48.73631" lon="2.05243">
        <ele>165</ele>
        <time>2017-05-21T05:03:34Z</time>
      </trkpt>
      <trkpt lat="48.73653" lon="2.0527">
        <ele>165</ele>
        <time>2017-05-21T05:05:34Z</time>
      </trkpt>
      <trkpt lat="48.73678" lon="2.05299">
        <ele>165</ele>
        <time>2017-05-21T05:07:34Z</time>
      </trkpt>
      <trkpt lat="48.73703" lon="2.05328">
        <ele>165</ele>
        <time>2017-05-21T05:09:34Z</time>
      </trkpt>
      <trkpt lat="48.73728" lon="2.05357">
        <ele>164</ele>
        <time>2017-05-21T05:11:34Z</time>
      </trkpt>
      <trkpt lat="48.73752" lon="2.05383">
        <ele>164</ele>
        <time>2017-05-21T05:13:34Z</time>
      </trkpt>
      <trkpt lat="48.73778" lon="2.05408">
        <ele>164</ele>
        <time>2017-05-21T05:15:34Z</time>
      </trkpt>
      <trkpt lat="48.73801" lon="2.05434">
        <ele>163</ele>
        <time>2017-05-21T05:17:34Z</time>
      </trkpt>
      <trkpt lat="48.73825" lon="2.0546">
        <ele>163</ele>
        <time>2017-05-21T05:19:34Z</time>
      </trkpt>
      <trkpt lat="48.73851" lon="2.05496">
        <ele>163</ele>
        <time>2017-05-21T05:21:34Z</time>
      </trkpt>
      <trkpt lat="48.73876" lon="2.05533">
        <ele>163</ele>
        <time>2017-05-21T05:23:34Z</time>
      </trkpt>
      <trkpt lat="48.73887" lon="2.05548">
        <ele>164</ele>
        <time>2017-05-21T05:25:34Z</time>
      </trkpt>
      <trkpt lat="48.73898" lon="2.05561">
        <ele>164</ele>
        <time>2017-05-21T05:27:34Z</time>
      </trkpt>
      <trkpt lat="48.73909" lon="2.05574">
        <ele>164</ele>
        <time>2017-05-21T05:29:34Z</time>
      </trkpt>
      <trkpt lat="48.73918" lon="2.05583">
        <ele>164</ele>
        <time>2017-05-21T05:31:34Z</time>
      </trkpt>
      <trkpt lat="48.73923" lon="2.05589">
        <ele>164</ele>
        <time>2017-05-21T05:33:34Z</time>
      </trkpt>
      <trkpt lat="48.73932" lon="2.05601">
        <ele>164</ele>
        <time>2017-05-21T05:35:34Z</time>
      </trkpt>
      <trkpt lat="48.73954" lon="2.05617">
        <ele>163</ele>
        <time>2017-05-21T05:37:34Z</time>
      </trkpt>
      <trkpt lat="48.73975" lon="2.05631">
        <ele>163</ele>
        <time>2017-05-21T05:39:34Z</time>
      </trkpt>
      <trkpt lat="48.73996" lon="2.05644">
        <ele>162</ele>
        <time>2017-05-21T05:41:34Z</time>
      </trkpt>
      <trkpt lat="48.7402" lon="2.05658">
        <ele>162</ele>
        <time>2017-05-21T05:43:34Z</time>
      </trkpt>
      <trkpt lat="48.74029" lon="2.05659">
        <ele>162</ele>
        <time>2017-05-21T05:45:34Z</time>
      </trkpt>
      <trkpt lat="48.74037" lon="2.05665">
        <ele>162</ele>
        <time>2017-05-21T05:47:34Z</time>
      </trkpt>
      <trkpt lat="48.74057" lon="2.05678">
        <ele>162</ele>
        <time>2017-05-21T05:49:34Z</time>
      </trkpt>
      <trkpt lat="48.74077" lon="2.05692">
        <ele>162</ele>
        <time>2017-05-21T05:51:34Z</time>
      </trkpt>
      <trkpt lat="48.74092" lon="2.05708">
        <ele>161</ele>
        <time>2017-05-21T05:53:34Z</time>
      </trkpt>
      <trkpt lat="48.74107" lon="2.05724">
        <ele>161</ele>
        <time>2017-05-21T05:55:34Z</time>
      </trkpt>
      <trkpt lat="48.74122" lon="2.05739">
        <ele>161</ele>
        <time>2017-05-21T05:57:34Z</time>
      </trkpt>
      <trkpt lat="48.74138" lon="2.05754">
        <ele>160</ele>
        <time>2017-05-21T05:59:34Z</time>
      </trkpt>
      <trkpt lat="48.74146" lon="2.05763">
        <ele>160</ele>
        <time>2017-05-21T06:01:34Z</time>
      </trkpt>
      <trkpt lat="48.74162" lon="2.05785">
        <ele>160</ele>
        <time>2017-05-21T06:03:34Z</time>
      </trkpt>
      <trkpt lat="48.74177" lon="2.05802">
        <ele>160</ele>
        <time>2017-05-21T06:05:34Z</time>
      </trkpt>
      <trkpt lat="48.74196" lon="2.05829">
        <ele>159</ele>
        <time>2017-05-21T06:07:34Z</time>
      </trkpt>
      <trkpt lat="48.74214" lon="2.05856">
        <ele>158</ele>
        <time>2017-05-21T06:09:34Z</time>
      </trkpt>
      <trkpt lat="48.74233" lon="2.05882">
        <ele>157</ele>
        <time>2017-05-21T06:11:34Z</time>
      </trkpt>
      <trkpt lat="48.74252" lon="2.05909">
        <ele>157</ele>
        <time>2017-05-21T06:13:34Z</time>
      </trkpt>
      <trkpt lat="48.74276" lon="2.05935">
        <ele>156</ele>
        <time>2017-05-21T06:15:34Z</time>
      </trkpt>
      <trkpt lat="48.74296" lon="2.05961">
        <ele>156</ele>
        <time>2017-05-21T06:17:34Z</time>
      </trkpt>
      <trkpt lat="48.74309" lon="2.0598">
        <ele>156</ele>
        <time>2017-05-21T06:19:34Z</time>
      </trkpt>
      <trkpt lat="48.7432" lon="2.06001">
        <ele>156</ele>
        <time>2017-05-21T06:21:34Z</time>
      </trkpt>
      <trkpt lat="48.74332" lon="2.06019">
        <ele>156</ele>
        <time>2017-05-21T06:23:34Z</time>
      </trkpt>
      <trkpt lat="48.74347" lon="2.06038">
        <ele>156</ele>
        <time>2017-05-21T06:25:34Z</time>
      </trkpt>
      <trkpt lat="48.74362" lon="2.06058">
        <ele>155</ele>
        <time>2017-05-21T06:27:34Z</time>
      </trkpt>
      <trkpt lat="48.74378" lon="2.06077">
        <ele>155</ele>
        <time>2017-05-21T06:29:34Z</time>
      </trkpt>
      <trkpt lat="48.74382" lon="2.06085">
        <ele>155</ele>
        <time>2017-05-21T06:31:34Z</time>
      </trkpt>
      <trkpt lat="48.74386" lon="2.06104">
        <ele>154</ele>
        <time>2017-05-21T06:33:34Z</time>
      </trkpt>
      <trkpt lat="48.74385" lon="2.06136">
        <ele>153</ele>
        <time>2017-05-21T06:35:34Z</time>
      </trkpt>
      <trkpt lat="48.74385" lon="2.06153">
        <ele>153</ele>
        <time>2017-05-21T06:37:34Z</time>
      </trkpt>
      <trkpt lat="48.74382" lon="2.06166">
        <ele>153</ele>
        <time>2017-05-21T06:39:34Z</time>
      </trkpt>
      <trkpt lat="48.74371" lon="2.06198">
        <ele>152</ele>
        <time>2017-05-21T06:41:34Z</time>
      </trkpt>
      <trkpt lat="48.74367" lon="2.06201">
        <ele>152</ele>
        <time>2017-05-21T06:43:34Z</time>
      </trkpt>
      <trkpt lat="48.74362" lon="2.06203">
        <ele>152</ele>
        <time>2017-05-21T06:45:34Z</time>
      </trkpt>
      <trkpt lat="48.74351" lon="2.06232">
        <ele>152</ele>
        <time>2017-05-21T06:47:34Z</time>
      </trkpt>
      <trkpt lat="48.7433" lon="2.06307">
        <ele>151</ele>
        <time>2017-05-21T06:49:34Z</time>
      </trkpt>
      <trkpt lat="48.74318" lon="2.06343">
        <ele>150</ele>
        <time>2017-05-21T06:51:34Z</time>
      </trkpt>
      <trkpt lat="48.74311" lon="2.06351">
        <ele>149</ele>
        <time>2017-05-21T06:53:34Z</time>
      </trkpt>
      <trkpt lat="48.74299" lon="2.06369">
        <ele>148</ele>
        <time>2017-05-21T06:55:34Z</time>
      </trkpt>
      <trkpt lat="48.74282" lon="2.06386">
        <ele>147</ele>
        <time>2017-05-21T06:57:34Z</time>
      </trkpt>
      <trkpt lat="48.74308" lon="2.06421">
        <ele>145</ele>
        <time>2017-05-21T06:59:34Z</time>
      </trkpt>
      <trkpt lat="48.74309" lon="2.0644">
        <ele>144</ele>
        <time>2017-05-21T07:01:34Z</time>
      </trkpt>
      <trkpt lat="48.74307" lon="2.06451">
        <ele>143</ele>
        <time>2017-05-21T07:03:34Z</time>
      </trkpt>
      <trkpt lat="48.74303" lon="2.06469">
        <ele>142</ele>
        <time>2017-05-21T07:05:34Z</time>
      </trkpt>
      <trkpt lat="48.74296" lon="2.06478">
        <ele>142</ele>
        <time>2017-05-21T07:07:34Z</time>
      </trkpt>
      <trkpt lat="48.74287" lon="2.06483">
        <ele>142</ele>
        <time>2017-05-21T07:09:34Z</time>
      </trkpt>
      <trkpt lat="48.74279" lon="2.06482">
        <ele>143</ele>
        <time>2017-05-21T07:11:34Z</time>
      </trkpt>
      <trkpt lat="48.74238" lon="2.06445">
        <ele>146</ele>
        <time>2017-05-21T07:13:34Z</time>
      </trkpt>
      <trkpt lat="48.74223" lon="2.06446">
        <ele>146</ele>
        <time>2017-05-21T07:15:34Z</time>
      </trkpt>
      <trkpt lat="48.7422" lon="2.06455">
        <ele>146</ele>
        <time>2017-05-21T07:17:34Z</time>
      </trkpt>
      <trkpt lat="48.7422" lon="2.06468">
        <ele>146</ele>
        <time>2017-05-21T07:19:34Z</time>
      </trkpt>
      <trkpt lat="48.74225" lon="2.06486">
        <ele>146</ele>
        <time>2017-05-21T07:21:34Z</time>
      </trkpt>
      <trkpt lat="48.74241" lon="2.06564">
        <ele>139</ele>
        <time>2017-05-21T07:23:34Z</time>
      </trkpt>
      <trkpt lat="48.74239" lon="2.06585">
        <ele>137</ele>
        <time>2017-05-21T07:25:34Z</time>
      </trkpt>
      <trkpt lat="48.7424" lon="2.06606">
        <ele>137</ele>
        <time>2017-05-21T07:27:34Z</time>
      </trkpt>
      <trkpt lat="48.7424" lon="2.06627">
        <ele>137</ele>
        <time>2017-05-21T07:29:34Z</time>
      </trkpt>
      <trkpt lat="48.74241" lon="2.06648">
        <ele>137</ele>
        <time>2017-05-21T07:31:34Z</time>
      </trkpt>
      <trkpt lat="48.74251" lon="2.06666">
        <ele>135</ele>
        <time>2017-05-21T07:33:34Z</time>
      </trkpt>
      <trkpt lat="48.74252" lon="2.06672">
        <ele>135</ele>
        <time>2017-05-21T07:35:34Z</time>
      </trkpt>
      <trkpt lat="48.74263" lon="2.06705">
        <ele>135</ele>
        <time>2017-05-21T07:37:34Z</time>
      </trkpt>
      <trkpt lat="48.74271" lon="2.06724">
        <ele>134</ele>
        <time>2017-05-21T07:39:34Z</time>
      </trkpt>
      <trkpt lat="48.7428" lon="2.06741">
        <ele>133</ele>
        <time>2017-05-21T07:41:34Z</time>
      </trkpt>
      <trkpt lat="48.74299" lon="2.0677">
        <ele>132</ele>
        <time>2017-05-21T07:43:34Z</time>
      </trkpt>
      <trkpt lat="48.74323" lon="2.06785">
        <ele>129</ele>
        <time>2017-05-21T07:45:34Z</time>
      </trkpt>
      <trkpt lat="48.74364" lon="2.06797">
        <ele>126</ele>
        <time>2017-05-21T07:47:34Z</time>
      </trkpt>
      <trkpt lat="48.74419" lon="2.0679">
        <ele>124</ele>
        <time>2017-05-21T07:49:34Z</time>
      </trkpt>
      <trkpt lat="48.74429" lon="2.06783">
        <ele>124</ele>
        <time>2017-05-21T07:51:34Z</time>
      </trkpt>
      <trkpt lat="48.7445" lon="2.06778">
        <ele>124</ele>
        <time>2017-05-21T07:53:34Z</time>
      </trkpt>
      <trkpt lat="48.74473" lon="2.06762">
        <ele>125</ele>
        <time>2017-05-21T07:55:34Z</time>
      </trkpt>
      <trkpt lat="48.7449" lon="2.06764">
        <ele>125</ele>
        <time>2017-05-21T07:57:34Z</time>
      </trkpt>
      <trkpt lat="48.74507" lon="2.06772">
        <ele>127</ele>
        <time>2017-05-21T07:59:34Z</time>
      </trkpt>
      <trkpt lat="48.74517" lon="2.06789">
        <ele>128</ele>
        <time>2017-05-21T08:01:34Z</time>
      </trkpt>
      <trkpt lat="48.74531" lon="2.06826">
        <ele>130</ele>
        <time>2017-05-21T08:03:34Z</time>
      </trkpt>
      <trkpt lat="48.74541" lon="2.06867">
        <ele>134</ele>
        <time>2017-05-21T08:05:34Z</time>
      </trkpt>
      <trkpt lat="48.74544" lon="2.06886">
        <ele>136</ele>
        <time>2017-05-21T08:07:34Z</time>
      </trkpt>
      <trkpt lat="48.74545" lon="2.06897">
        <ele>136</ele>
        <time>2017-05-21T08:09:34Z</time>
      </trkpt>
      <trkpt lat="48.74544" lon="2.0691">
        <ele>137</ele>
        <time>2017-05-21T08:11:34Z</time>
      </trkpt>
      <trkpt lat="48.7454" lon="2.06923">
        <ele>136</ele>
        <time>2017-05-21T08:13:34Z</time>
      </trkpt>
      <trkpt lat="48.74534" lon="2.06935">
        <ele>135</ele>
        <time>2017-05-21T08:15:34Z</time>
      </trkpt>
      <trkpt lat="48.74521" lon="2.06956">
        <ele>132</ele>
        <time>2017-05-21T08:17:34Z</time>
      </trkpt>
      <trkpt lat="48.74517" lon="2.06967">
        <ele>132</ele>
        <time>2017-05-21T08:19:34Z</time>
      </trkpt>
      <trkpt lat="48.74513" lon="2.06975">
        <ele>131</ele>
        <time>2017-05-21T08:21:34Z</time>
      </trkpt>
      <trkpt lat="48.74511" lon="2.06991">
        <ele>130</ele>
        <time>2017-05-21T08:23:34Z</time>
      </trkpt>
      <trkpt lat="48.74511" lon="2.07007">
        <ele>130</ele>
        <time>2017-05-21T08:25:34Z</time>
      </trkpt>
      <trkpt lat="48.74513" lon="2.07018">
        <ele>131</ele>
        <time>2017-05-21T08:27:34Z</time>
      </trkpt>
      <trkpt lat="48.74515" lon="2.07026">
        <ele>132</ele>
        <time>2017-05-21T08:29:34Z</time>
      </trkpt>
      <trkpt lat="48.74523" lon="2.07033">
        <ele>133</ele>
        <time>2017-05-21T08:31:34Z</time>
      </trkpt>
      <trkpt lat="48.74531" lon="2.07034">
        <ele>135</ele>
        <time>2017-05-21T08:33:34Z</time>
      </trkpt>
      <trkpt lat="48.7454" lon="2.07032">
        <ele>137</ele>
        <time>2017-05-21T08:35:34Z</time>
      </trkpt>
      <trkpt lat="48.74548" lon="2.07027">
        <ele>139</ele>
        <time>2017-05-21T08:37:34Z</time>
      </trkpt>
      <trkpt lat="48.74563" lon="2.07006">
        <ele>142</ele>
        <time>2017-05-21T08:39:34Z</time>
      </trkpt>
      <trkpt lat="48.74579" lon="2.07">
        <ele>145</ele>
        <time>2017-05-21T08:41:34Z</time>
      </trkpt>
      <trkpt lat="48.74586" lon="2.07007">
        <ele>146</ele>
        <time>2017-05-21T08:43:34Z</time>
      </trkpt>
      <trkpt lat="48.74589" lon="2.07016">
        <ele>147</ele>
        <time>2017-05-21T08:45:34Z</time>
      </trkpt>
      <trkpt lat="48.74588" lon="2.07024">
        <ele>147</ele>
        <time>2017-05-21T08:47:34Z</time>
      </trkpt>
      <trkpt lat="48.74588" lon="2.07064">
        <ele>147</ele>
        <time>2017-05-21T08:49:34Z</time>
      </trkpt>
      <trkpt lat="48.74587" lon="2.07076">
        <ele>147</ele>
        <time>2017-05-21T08:51:34Z</time>
      </trkpt>
      <trkpt lat="48.74583" lon="2.07103">
        <ele>148</ele>
        <time>2017-05-21T08:53:34Z</time>
      </trkpt>
      <trkpt lat="48.74573" lon="2.07135">
        <ele>146</ele>
        <time>2017-05-21T08:55:34Z</time>
      </trkpt>
      <trkpt lat="48.74572" lon="2.07155">
        <ele>147</ele>
        <time>2017-05-21T08:57:34Z</time>
      </trkpt>
      <trkpt lat="48.7456" lon="2.0717">
        <ele>144</ele>
        <time>2017-05-21T08:59:34Z</time>
      </trkpt>
      <trkpt lat="48.74551" lon="2.0719">
        <ele>143</ele>
        <time>2017-05-21T09:01:34Z</time>
      </trkpt>
      <trkpt lat="48.74548" lon="2.072">
        <ele>143</ele>
        <time>2017-05-21T09:03:34Z</time>
      </trkpt>
      <trkpt lat="48.74548" lon="2.07205">
        <ele>143</ele>
        <time>2017-05-21T09:05:34Z</time>
      </trkpt>
      <trkpt lat="48.74546" lon="2.07222">
        <ele>143</ele>
        <time>2017-05-21T09:07:34Z</time>
      </trkpt>
      <trkpt lat="48.74544" lon="2.0723">
        <ele>143</ele>
        <time>2017-05-21T09:09:34Z</time>
      </trkpt>
      <trkpt lat="48.74543" lon="2.07243">
        <ele>144</ele>
        <time>2017-05-21T09:11:34Z</time>
      </trkpt>
      <trkpt lat="48.74542" lon="2.07258">
        <ele>144</ele>
        <time>2017-05-21T09:13:34Z</time>
      </trkpt>
      <trkpt lat="48.74541" lon="2.07262">
        <ele>144</ele>
        <time>2017-05-21T09:15:34Z</time>
      </trkpt>
      <trkpt lat="48.74543" lon="2.07272">
        <ele>145</ele>
        <time>2017-05-21T09:17:34Z</time>
      </trkpt>
      <trkpt lat="48.74543" lon="2.07276">
        <ele>145</ele>
        <time>2017-05-21T09:19:34Z</time>
      </trkpt>
      <trkpt lat="48.74541" lon="2.0728">
        <ele>145</ele>
        <time>2017-05-21T09:21:34Z</time>
      </trkpt>
      <trkpt lat="48.7454" lon="2.07285">
        <ele>145</ele>
        <time>2017-05-21T09:23:34Z</time>
      </trkpt>
      <trkpt lat="48.7454" lon="2.07294">
        <ele>145</ele>
        <time>2017-05-21T09:25:34Z</time>
      </trkpt>
      <trkpt lat="48.74532" lon="2.073">
        <ele>144</ele>
        <time>2017-05-21T09:27:34Z</time>
      </trkpt>
      <trkpt lat="48.74528" lon="2.07309">
        <ele>143</ele>
        <time>2017-05-21T09:29:34Z</time>
      </trkpt>
      <trkpt lat="48.74525" lon="2.07318">
        <ele>143</ele>
        <time>2017-05-21T09:31:34Z</time>
      </trkpt>
      <trkpt lat="48.74515" lon="2.07334">
        <ele>142</ele>
        <time>2017-05-21T09:33:34Z</time>
      </trkpt>
      <trkpt lat="48.74514" lon="2.07338">
        <ele>143</ele>
        <time>2017-05-21T09:35:34Z</time>
      </trkpt>
      <trkpt lat="48.74508" lon="2.07348">
        <ele>143</ele>
        <time>2017-05-21T09:37:34Z</time>
      </trkpt>
      <trkpt lat="48.74505" lon="2.0736">
        <ele>144</ele>
        <time>2017-05-21T09:39:34Z</time>
      </trkpt>
      <trkpt lat="48.74492" lon="2.07378">
        <ele>144</ele>
        <time>2017-05-21T09:41:34Z</time>
      </trkpt>
      <trkpt lat="48.74465" lon="2.07386">
        <ele>139</ele>
        <time>2017-05-21T09:43:34Z</time>
      </trkpt>
      <trkpt lat="48.74461" lon="2.07384">
        <ele>138</ele>
        <time>2017-05-21T09:45:34Z</time>
      </trkpt>
      <trkpt lat="48.74454" lon="2.07389">
        <ele>137</ele>
        <time>2017-05-21T09:47:34Z</time>
      </trkpt>
      <trkpt lat="48.74451" lon="2.07385">
        <ele>135</ele>
        <time>2017-05-21T09:49:34Z</time>
      </trkpt>
      <trkpt lat="48.74442" lon="2.07399">
        <ele>135</ele>
        <time>2017-05-21T09:51:34Z</time>
      </trkpt>
      <trkpt lat="48.74439" lon="2.07408">
        <ele>136</ele>
        <time>2017-05-21T09:53:34Z</time>
      </trkpt>
      <trkpt lat="48.74432" lon="2.07408">
        <ele>134</ele>
        <time>2017-05-21T09:55:34Z</time>
      </trkpt>
      <trkpt lat="48.74426" lon="2.07413">
        <ele>133</ele>
        <time>2017-05-21T09:57:34Z</time>
      </trkpt>
      <trkpt lat="48.74424" lon="2.07417">
        <ele>133</ele>
        <time>2017-05-21T09:59:34Z</time>
      </trkpt>
      <trkpt lat="48.74418" lon="2.07417">
        <ele>131</ele>
        <time>2017-05-21T10:01:34Z</time>
      </trkpt>
      <trkpt lat="48.74411" lon="2.07427">
        <ele>132</ele>
        <time>2017-05-21T10:03:34Z</time>
      </trkpt>
      <trkpt lat="48.74399" lon="2.07433">
        <ele>131</ele>
        <time>2017-05-21T10:05:34Z</time>
      </trkpt>
      <trkpt lat="48.74393" lon="2.07439">
        <ele>130</ele>
        <time>2017-05-21T10:07:34Z</time>
      </trkpt>
      <trkpt lat="48.74391" lon="2.07443">
        <ele>130</ele>
        <time>2017-05-21T10:09:34Z</time>
      </trkpt>
      <trkpt lat="48.7439" lon="2.07448">
        <ele>131</ele>
        <time>2017-05-21T10:11:34Z</time>
      </trkpt>
      <trkpt lat="48.74388" lon="2.07454">
        <ele>131</ele>
        <time>2017-05-21T10:13:34Z</time>
      </trkpt>
      <trkpt lat="48.74376" lon="2.07465">
        <ele>130</ele>
        <time>2017-05-21T10:15:34Z</time>
      </trkpt>
      <trkpt lat="48.74369" lon="2.07478">
        <ele>129</ele>
        <time>2017-05-21T10:17:34Z</time>
      </trkpt>
      <trkpt lat="48.74363" lon="2.07512">
        <ele>131</ele>
        <time>2017-05-21T10:19:34Z</time>
      </trkpt>
      <trkpt lat="48.74361" lon="2.07532">
        <ele>132</ele>
        <time>2017-05-21T10:21:34Z</time>
      </trkpt>
      <trkpt lat="48.74357" lon="2.07548">
        <ele>133</ele>
        <time>2017-05-21T10:23:34Z</time>
      </trkpt>
      <trkpt lat="48.74349" lon="2.07571">
        <ele>133</ele>
        <time>2017-05-21T10:25:34Z</time>
      </trkpt>
      <trkpt lat="48.74323" lon="2.07603">
        <ele>129</ele>
        <time>2017-05-21T10:27:34Z</time>
      </trkpt>
      <trkpt lat="48.74315" lon="2.07616">
        <ele>129</ele>
        <time>2017-05-21T10:29:34Z</time>
      </trkpt>
      <trkpt lat="48.74308" lon="2.07636">
        <ele>130</ele>
        <time>2017-05-21T10:31:34Z</time>
      </trkpt>
      <trkpt lat="48.74305" lon="2.07656">
        <ele>131</ele>
        <time>2017-05-21T10:33:34Z</time>
      </trkpt>
      <trkpt lat="48.743" lon="2.07682">
        <ele>132</ele>
        <time>2017-05-21T10:35:34Z</time>
      </trkpt>
      <trkpt lat="48.74296" lon="2.07709">
        <ele>132</ele>
        <time>2017-05-21T10:37:34Z</time>
      </trkpt>
      <trkpt lat="48.74284" lon="2.0774">
        <ele>131</ele>
        <time>2017-05-21T10:39:34Z</time>
      </trkpt>
      <trkpt lat="48.74281" lon="2.07738">
        <ele>130</ele>
        <time>2017-05-21T10:41:34Z</time>
      </trkpt>
      <trkpt lat="48.74271" lon="2.07738">
        <ele>128</ele>
        <time>2017-05-21T10:43:34Z</time>
      </trkpt>
      <trkpt lat="48.74263" lon="2.07743">
        <ele>126</ele>
        <time>2017-05-21T10:45:34Z</time>
      </trkpt>
      <trkpt lat="48.74253" lon="2.07755">
        <ele>124</ele>
        <time>2017-05-21T10:47:34Z</time>
      </trkpt>
      <trkpt lat="48.7423" lon="2.07792">
        <ele>121</ele>
        <time>2017-05-21T10:49:34Z</time>
      </trkpt>
      <trkpt lat="48.74221" lon="2.07809">
        <ele>120</ele>
        <time>2017-05-21T10:51:34Z</time>
      </trkpt>
      <trkpt lat="48.74219" lon="2.0782">
        <ele>119</ele>
        <time>2017-05-21T10:53:34Z</time>
      </trkpt>
      <trkpt lat="48.74216" lon="2.07842">
        <ele>119</ele>
        <time>2017-05-21T10:55:34Z</time>
      </trkpt>
      <trkpt lat="48.74216" lon="2.07875">
        <ele>120</ele>
        <time>2017-05-21T10:57:34Z</time>
      </trkpt>
      <trkpt lat="48.74218" lon="2.07888">
        <ele>121</ele>
        <time>2017-05-21T10:59:34Z</time>
      </trkpt>
      <trkpt lat="48.74218" lon="2.07904">
        <ele>121</ele>
        <time>2017-05-21T11:01:34Z</time>
      </trkpt>
      <trkpt lat="48.74217" lon="2.07916">
        <ele>121</ele>
        <time>2017-05-21T11:03:34Z</time>
      </trkpt>
      <trkpt lat="48.74211" lon="2.07931">
        <ele>122</ele>
        <time>2017-05-21T11:05:34Z</time>
      </trkpt>
      <trkpt lat="48.74206" lon="2.0794">
        <ele>122</ele>
        <time>2017-05-21T11:07:34Z</time>
      </trkpt>
      <trkpt lat="48.74188" lon="2.0795">
        <ele>121</ele>
        <time>2017-05-21T11:09:34Z</time>
      </trkpt>
      <trkpt lat="48.74145" lon="2.07951">
        <ele>116</ele>
        <time>2017-05-21T11:11:34Z</time>
      </trkpt>
      <trkpt lat="48.74133" lon="2.07945">
        <ele>115</ele>
        <time>2017-05-21T11:13:34Z</time>
      </trkpt>
      <trkpt lat="48.74119" lon="2.07934">
        <ele>113</ele>
        <time>2017-05-21T11:15:34Z</time>
      </trkpt>
      <trkpt lat="48.74107" lon="2.07972">
        <ele>114</ele>
        <time>2017-05-21T11:17:34Z</time>
      </trkpt>
      <trkpt lat="48.7402" lon="2.08212">
        <ele>117</ele>
        <time>2017-05-21T11:19:34Z</time>
      </trkpt>
      <trkpt lat="48.74013" lon="2.08216">
        <ele>116</ele>
        <time>2017-05-21T11:21:34Z</time>
      </trkpt>
      <trkpt lat="48.73987" lon="2.0822">
        <ele>116</ele>
        <time>2017-05-21T11:23:34Z</time>
      </trkpt>
      <trkpt lat="48.73955" lon="2.08234">
        <ele>115</ele>
        <time>2017-05-21T11:25:34Z</time>
      </trkpt>
      <trkpt lat="48.73937" lon="2.0823">
        <ele>115</ele>
        <time>2017-05-21T11:27:34Z</time>
      </trkpt>
      <trkpt lat="48.73939" lon="2.08247">
        <ele>115</ele>
        <time>2017-05-21T11:29:34Z</time>
      </trkpt>
      <trkpt lat="48.73942" lon="2.08255">
        <ele>115</ele>
        <time>2017-05-21T11:31:34Z</time>
      </trkpt>
      <trkpt lat="48.73942" lon="2.08262">
        <ele>116</ele>
        <time>2017-05-21T11:33:34Z</time>
      </trkpt>
      <trkpt lat="48.73939" lon="2.08267">
        <ele>116</ele>
        <time>2017-05-21T11:35:34Z</time>
      </trkpt>
      <trkpt lat="48.73927" lon="2.0827">
        <ele>116</ele>
        <time>2017-05-21T11:37:34Z</time>
      </trkpt>
      <trkpt lat="48.73883" lon="2.08298">
        <ele>116</ele>
        <time>2017-05-21T11:39:34Z</time>
      </trkpt>
      <trkpt lat="48.73851" lon="2.08327">
        <ele>113</ele>
        <time>2017-05-21T11:41:34Z</time>
      </trkpt>
      <trkpt lat="48.73828" lon="2.08343">
        <ele>111</ele>
        <time>2017-05-21T11:43:34Z</time>
      </trkpt>
      <trkpt lat="48.7381" lon="2.08362">
        <ele>111</ele>
        <time>2017-05-21T11:45:34Z</time>
      </trkpt>
      <trkpt lat="48.73737" lon="2.08413">
        <ele>109</ele>
        <time>2017-05-21T11:47:34Z</time>
      </trkpt>
      <trkpt lat="48.73732" lon="2.08422">
        <ele>109</ele>
        <time>2017-05-21T11:49:34Z</time>
      </trkpt>
      <trkpt lat="48.73729" lon="2.08435">
        <ele>110</ele>
        <time>2017-05-21T11:51:34Z</time>
      </trkpt>
      <trkpt lat="48.73723" lon="2.08446">
        <ele>110</ele>
        <time>2017-05-21T11:53:34Z</time>
      </trkpt>
      <trkpt lat="48.73714" lon="2.0845">
        <ele>110</ele>
        <time>2017-05-21T11:55:34Z</time>
      </trkpt>
      <trkpt lat="48.737" lon="2.08448">
        <ele>110</ele>
        <time>2017-05-21T11:57:34Z</time>
      </trkpt>
      <trkpt lat="48.73651" lon="2.08422">
        <ele>108</ele>
        <time>2017-05-21T11:59:34Z</time>
      </trkpt>
      <trkpt lat="48.73646" lon="2.08425">
        <ele>108</ele>
        <time>2017-05-21T12:01:34Z</time>
      </trkpt>
      <trkpt lat="48.73644" lon="2.08434">
        <ele>108</ele>
        <time>2017-05-21T12:03:34Z</time>
      </trkpt>
      <trkpt lat="48.73639" lon="2.08437">
        <ele>108</ele>
        <time>2017-05-21T12:05:34Z</time>
      </trkpt>
      <trkpt lat="48.73623" lon="2.08434">
        <ele>107</ele>
        <time>2017-05-21T12:07:34Z</time>
      </trkpt>
      <trkpt lat="48.73621" lon="2.08429">
        <ele>107</ele>
        <time>2017-05-21T12:09:34Z</time>
      </trkpt>
      <trkpt lat="48.73621" lon="2.08422">
        <ele>107</ele>
        <time>2017-05-21T12:11:34Z</time>
      </trkpt>
      <trkpt lat="48.73617" lon="2.0842">
        <ele>107</ele>
        <time>2017-05-21T12:13:34Z</time>
      </trkpt>
      <trkpt lat="48.73611" lon="2.08423">
        <ele>107</ele>
        <time>2017-05-21T12:15:34Z</time>
      </trkpt>
      <trkpt lat="48.73605" lon="2.08432">
        <ele>107</ele>
        <time>2017-05-21T12:17:34Z</time>
      </trkpt>
      <trkpt lat="48.73598" lon="2.08431">
        <ele>106</ele>
        <time>2017-05-21T12:19:34Z</time>
      </trkpt>
      <trkpt lat="48.73593" lon="2.08425">
        <ele>106</ele>
        <time>2017-05-21T12:21:34Z</time>
      </trkpt>
      <trkpt lat="48.73587" lon="2.08433">
        <ele>106</ele>
        <time>2017-05-21T12:23:34Z</time>
      </trkpt>
      <trkpt lat="48.73588" lon="2.08442">
        <ele>106</ele>
        <time>2017-05-21T12:25:34Z</time>
      </trkpt>
      <trkpt lat="48.7359" lon="2.08454">
        <ele>106</ele>
        <time>2017-05-21T12:27:34Z</time>
      </trkpt>
      <trkpt lat="48.73588" lon="2.08459">
        <ele>106</ele>
        <time>2017-05-21T12:29:34Z</time>
      </trkpt>
      <trkpt lat="48.7358" lon="2.08454">
        <ele>106</ele>
        <time>2017-05-21T12:31:34Z</time>
      </trkpt>
      <trkpt lat="48.73575" lon="2.08459">
        <ele>106</ele>
        <time>2017-05-21T12:33:34Z</time>
      </trkpt>
      <trkpt lat="48.73575" lon="2.08469">
        <ele>106</ele>
        <time>2017-05-21T12:35:34Z</time>
      </trkpt>
      <trkpt lat="48.73569" lon="2.0848">
        <ele>107</ele>
        <time>2017-05-21T12:37:34Z</time>
      </trkpt>
      <trkpt lat="48.73518" lon="2.08543">
        <ele>108</ele>
        <time>2017-05-21T12:39:34Z</time>
      </trkpt>
      <trkpt lat="48.73501" lon="2.08555">
        <ele>108</ele>
        <time>2017-05-21T12:41:34Z</time>
      </trkpt>
      <trkpt lat="48.73494" lon="2.08568">
        <ele>108</ele>
        <time>2017-05-21T12:43:34Z</time>
      </trkpt>
      <trkpt lat="48.73483" lon="2.08593">
        <ele>108</ele>
        <time>2017-05-21T12:45:34Z</time>
      </trkpt>
      <trkpt lat="48.73463" lon="2.08627">
        <ele>108</ele>
        <time>2017-05-21T12:47:34Z</time>
      </trkpt>
      <trkpt lat="48.73457" lon="2.08641">
        <ele>108</ele>
        <time>2017-05-21T12:49:34Z</time>
      </trkpt>
      <trkpt lat="48.73435" lon="2.08669">
        <ele>109</ele>
        <time>2017-05-21T12:51:34Z</time>
      </trkpt>
      <trkpt lat="48.73409" lon="2.08668">
        <ele>109</ele>
        <time>2017-05-21T12:53:34Z</time>
      </trkpt>
      <trkpt lat="48.73415" lon="2.08635">
        <ele>110</ele>
        <time>2017-05-21T12:55:34Z</time>
      </trkpt>
      <trkpt lat="48.73419" lon="2.08609">
        <ele>110</ele>
        <time>2017-05-21T12:57:34Z</time>
      </trkpt>
      <trkpt lat="48.73418" lon="2.08598">
        <ele>111</ele>
        <time>2017-05-21T12:59:34Z</time>
      </trkpt>
      <trkpt lat="48.73413" lon="2.08576">
        <ele>111</ele>
        <time>2017-05-21T13:01:34Z</time>
      </trkpt>
      <trkpt lat="48.73375" lon="2.08466">
        <ele>118</ele>
        <time>2017-05-21T13:03:34Z</time>
      </trkpt>
      <trkpt lat="48.73361" lon="2.08436">
        <ele>122</ele>
        <time>2017-05-21T13:05:34Z</time>
      </trkpt>
      <trkpt lat="48.73347" lon="2.08416">
        <ele>125</ele>
        <time>2017-05-21T13:07:34Z</time>
      </trkpt>
      <trkpt lat="48.73338" lon="2.08395">
        <ele>128</ele>
        <time>2017-05-21T13:09:34Z</time>
      </trkpt>
      <trkpt lat="48.73289" lon="2.08312">
        <ele>140</ele>
        <time>2017-05-21T13:11:34Z</time>
      </trkpt>
      <trkpt lat="48.73261" lon="2.08275">
        <ele>145</ele>
        <time>2017-05-21T13:13:34Z</time>
      </trkpt>
      <trkpt lat="48.73239" lon="2.08235">
        <ele>150</ele>
        <time>2017-05-21T13:15:34Z</time>
      </trkpt>
      <trkpt lat="48.73146" lon="2.08157">
        <ele>160</ele>
        <time>2017-05-21T13:17:34Z</time>
      </trkpt>
      <trkpt lat="48.73112" lon="2.08225">
        <ele>165</ele>
        <time>2017-05-21T13:19:34Z</time>
      </trkpt>
      <trkpt lat="48.72898" lon="2.08469">
        <ele>165</ele>
        <time>2017-05-21T13:21:34Z</time>
      </trkpt>
      <trkpt lat="48.72896" lon="2.08475">
        <ele>164</ele>
        <time>2017-05-21T13:23:34Z</time>
      </trkpt>
      <trkpt lat="48.72883" lon="2.08556">
        <ele>162</ele>
        <time>2017-05-21T13:25:34Z</time>
      </trkpt>
      <trkpt lat="48.7288" lon="2.08562">
        <ele>162</ele>
        <time>2017-05-21T13:27:34Z</time>
      </trkpt>
      <trkpt lat="48.72875" lon="2.08567">
        <ele>163</ele>
        <time>2017-05-21T13:29:34Z</time>
      </trkpt>
      <trkpt lat="48.72873" lon="2.08571">
        <ele>163</ele>
        <time>2017-05-21T13:31:34Z</time>
      </trkpt>
      <trkpt lat="48.72853" lon="2.08574">
        <ele>165</ele>
        <time>2017-05-21T13:33:34Z</time>
      </trkpt>
      <trkpt lat="48.72848" lon="2.08581">
        <ele>166</ele>
        <time>2017-05-21T13:35:34Z</time>
      </trkpt>
      <trkpt lat="48.72837" lon="2.08588">
        <ele>168</ele>
        <time>2017-05-21T13:37:34Z</time>
      </trkpt>
      <trkpt lat="48.7283" lon="2.08585">
        <ele>168</ele>
        <time>2017-05-21T13:39:34Z</time>
      </trkpt>
      <trkpt lat="48.72826" lon="2.08579">
        <ele>168</ele>
        <time>2017-05-21T13:41:34Z</time>
      </trkpt>
      <trkpt lat="48.72824" lon="2.08574">
        <ele>167</ele>
        <time>2017-05-21T13:43:34Z</time>
      </trkpt>
      <trkpt lat="48.72816" lon="2.08562">
        <ele>167</ele>
        <time>2017-05-21T13:45:34Z</time>
      </trkpt>
      <trkpt lat="48.72812" lon="2.08551">
        <ele>166</ele>
        <time>2017-05-21T13:47:34Z</time>
      </trkpt>
      <trkpt lat="48.72809" lon="2.0855">
        <ele>166</ele>
        <time>2017-05-21T13:49:34Z</time>
      </trkpt>
      <trkpt lat="48.72803" lon="2.08542">
        <ele>166</ele>
        <time>2017-05-21T13:51:34Z</time>
      </trkpt>
      <trkpt lat="48.72801" lon="2.0853">
        <ele>165</ele>
        <time>2017-05-21T13:53:34Z</time>
      </trkpt>
      <trkpt lat="48.72791" lon="2.08514">
        <ele>164</ele>
        <time>2017-05-21T13:55:34Z</time>
      </trkpt>
      <trkpt lat="48.7278" lon="2.08501">
        <ele>163</ele>
        <time>2017-05-21T13:57:34Z</time>
      </trkpt>
      <trkpt lat="48.72767" lon="2.08473">
        <ele>162</ele>
        <time>2017-05-21T13:59:34Z</time>
      </trkpt>
      <trkpt lat="48.72764" lon="2.0847">
        <ele>162</ele>
        <time>2017-05-21T14:01:34Z</time>
      </trkpt>
      <trkpt lat="48.72729" lon="2.08464">
        <ele>162</ele>
        <time>2017-05-21T14:03:34Z</time>
      </trkpt>
      <trkpt lat="48.72716" lon="2.08457">
        <ele>162</ele>
        <time>2017-05-21T14:05:34Z</time>
      </trkpt>
      <trkpt lat="48.72711" lon="2.08447">
        <ele>163</ele>
        <time>2017-05-21T14:07:34Z</time>
      </trkpt>
      <trkpt lat="48.72706" lon="2.08431">
        <ele>163</ele>
        <time>2017-05-21T14:09:34Z</time>
      </trkpt>
      <trkpt lat="48.72702" lon="2.08406">
        <ele>163</ele>
        <time>2017-05-21T14:11:34Z</time>
      </trkpt>
      <trkpt lat="48.72692" lon="2.08359">
        <ele>164</ele>
        <time>2017-05-21T14:13:34Z</time>
      </trkpt>
      <trkpt lat="48.7269" lon="2.08347">
        <ele>164</ele>
        <time>2017-05-21T14:15:34Z</time>
      </trkpt>
    </trkseg>
  </trk>
</gpx>